Time;durP1;ratioP1;P1;durP2;ratioP2;P2;SDS_P1;SDS_P2;PMS_P1;PMS_P2;Temp;Humidity;BMP_temperature;BMP_pressure;BME280_temperature;BME280_humidity;BME280_pressure;Samples;Min_cycle;Max_cycle;Signal;HPM_P1;HPM_P2
2021/10/16 00:00:19;;;;;;;;;79.00;58.33;;;;;0.47;100.00;99818.56;6313366;20;3634628;-42
2021/10/16 00:02:49;;;;;;;;;76.00;58.00;;;;;0.49;100.00;99818.56;6314900;20;3654516;-43
2021/10/16 00:05:18;;;;;;;;;66.50;53.00;;;;;0.24;100.00;99819.00;6315272;20;2874410;-41
2021/10/16 00:07:48;;;;;;;;;78.00;56.00;;;;;0.35;100.00;99817.03;6282327;20;3649228;-43
2021/10/16 00:10:17;;;;;;;;;72.67;53.67;;;;;0.92;100.00;99818.59;6315598;20;2882586;-44
2021/10/16 00:12:46;;;;;;;;;72.50;54.50;;;;;1.40;100.00;99812.31;6315294;20;2862748;-42
2021/10/16 00:15:16;;;;;;;;;76.00;56.33;;;;;0.75;100.00;99820.72;6282967;20;3645180;-42
2021/10/16 00:17:45;;;;;;;;;71.00;56.00;;;;;1.23;100.00;99813.53;6310800;20;2856540;-42
2021/10/16 00:20:13;;;;;;;;;78.00;61.00;;;;;1.07;100.00;99817.41;6280993;20;2756501;-42
2021/10/16 00:22:41;;;;;;;;;66.50;55.50;;;;;1.35;100.00;99820.34;6310514;20;2500316;-43
2021/10/16 00:25:09;;;;;;;;;70.50;56.00;;;;;1.21;100.00;99819.75;6281450;20;2500289;-43
2021/10/16 00:27:39;;;;;;;;;82.67;57.33;;;;;0.82;100.00;99811.78;6278950;20;2893981;-42
2021/10/16 00:30:08;;;;;;;;;53.00;39.50;;;;;1.52;100.00;99825.25;6313657;20;2854432;-42
2021/10/16 00:32:37;;;;;;;;;77.00;57.00;;;;;1.21;100.00;99825.06;6284938;20;2884650;-41
2021/10/16 00:35:08;;;;;;;;;73.67;54.33;;;;;0.85;100.00;99820.50;6282470;20;2873259;-42
2021/10/16 00:37:37;;;;;;;;;66.00;55.00;;;;;0.77;100.00;99813.63;6311068;20;2872140;-42
2021/10/16 00:40:08;;;;;;;;;76.00;57.00;;;;;1.32;100.00;99817.78;6283099;20;2889945;-42
2021/10/16 00:42:54;;;;;;;;;53.67;37.33;;;;;1.23;100.00;99815.31;6314794;20;2880564;-42
2021/10/16 00:45:26;;;;;;;;;68.33;49.67;;;;;1.03;100.00;99810.47;6312374;20;3631490;-42
2021/10/16 00:47:55;;;;;;;;;69.00;52.00;;;;;1.81;100.00;99800.75;6313990;20;2874232;-42
2021/10/16 00:50:25;;;;;;;;;71.67;55.67;;;;;1.04;100.00;99815.69;6281789;20;2869018;-42
2021/10/16 00:52:54;;;;;;;;;65.50;53.00;;;;;1.29;100.00;99802.84;6314417;20;2870114;-42
2021/10/16 00:55:27;;;;;;;;;68.67;51.67;;;;;1.88;100.00;99807.66;6279102;20;2868107;-42
2021/10/16 00:58:00;;;;;;;;;72.00;51.00;;;;;1.90;100.00;99795.25;6311281;20;2881523;-42
2021/10/16 01:00:30;;;;;;;;;70.67;53.00;;;;;1.67;100.00;99792.28;6308788;20;3622096;-42
2021/10/16 01:03:01;;;;;;;;;62.00;49.50;;;;;1.55;100.00;99777.56;6311231;20;2866923;-42
2021/10/16 01:05:30;;;;;;;;;65.00;53.00;;;;;1.51;100.00;99771.47;6283088;20;2860695;-42
2021/10/16 01:08:03;;;;;;;;;63.00;51.00;;;;;1.89;100.00;99777.59;6277540;20;2850252;-42
2021/10/16 01:10:33;;;;;;;;;75.00;54.00;;;;;2.05;100.00;99769.28;6284189;20;3654496;-42
2021/10/16 01:13:03;;;;;;;;;77.00;54.33;;;;;1.60;100.00;99773.03;6312471;20;3649267;-42
2021/10/16 01:15:34;;;;;;;;;76.33;55.67;;;;;1.45;100.00;99766.34;6313144;20;3634211;-43
2021/10/16 01:18:04;;;;;;;;;69.33;53.33;;;;;1.41;100.00;99774.38;6313552;20;2878438;-42
2021/10/16 01:20:37;;;;;;;;;71.33;55.33;;;;;1.35;100.00;99770.09;6309114;20;2880581;-42
2021/10/16 01:23:06;;;;;;;;;73.33;54.33;;;;;1.27;100.00;99766.75;6309627;20;3650207;-42
2021/10/16 01:25:36;;;;;;;;;62.00;50.00;;;;;1.49;100.00;99770.63;6310357;20;2854517;-42
2021/10/16 01:28:06;;;;;;;;;70.00;49.33;;;;;0.70;100.00;99775.88;6276695;20;2884870;-42
2021/10/16 01:30:36;;;;;;;;;75.67;53.67;;;;;0.65;100.00;99789.16;6309773;20;2887747;-42
2021/10/16 01:33:04;;;;;;;;;46.50;29.00;;;;;0.73;100.00;99785.50;6313695;20;2835692;-42
2021/10/16 01:35:34;;;;;;;;;70.33;47.33;;;;;1.25;100.00;99782.66;6282772;20;2879449;-41
2021/10/16 01:38:02;;;;;;;;;65.00;52.00;;;;;1.58;100.00;99784.56;6311700;20;2858653;-44
2021/10/16 01:40:31;;;;;;;;;66.00;49.00;;;;;1.57;100.00;99780.19;6280571;20;2864913;-42
2021/10/16 01:43:00;;;;;;;;;66.00;49.00;;;;;1.84;100.00;99782.16;6282297;20;2871303;-42
2021/10/16 01:45:30;;;;;;;;;67.67;50.33;;;;;1.87;100.00;99779.44;6281971;20;2877441;-42
2021/10/16 01:47:59;;;;;;;;;63.00;45.00;;;;;2.11;100.00;99777.09;6311832;20;2873161;-44
2021/10/16 01:50:42;;;;;;;;;71.33;53.33;;;;;2.37;100.00;99779.94;6314294;20;2881534;-43
2021/10/16 01:53:11;;;;;;;;;68.67;51.00;;;;;2.27;100.00;99772.28;6309873;20;3625509;-42
2021/10/16 01:55:41;;;;;;;;;57.33;41.33;;;;;2.47;100.00;99769.06;6312927;20;3628371;-42
2021/10/16 01:58:15;;;;;;;;;62.50;51.50;;;;;2.51;99.85;99765.44;6308510;20;2875359;-42
2021/10/16 02:00:47;;;;;;;;;60.67;48.33;;;;;2.46;99.88;99772.66;6278436;20;2862888;-43
2021/10/16 02:03:16;;;;;;;;;61.50;45.50;;;;;2.76;99.94;99771.78;6312343;20;2875245;-41
2021/10/16 02:05:46;;;;;;;;;61.00;49.00;;;;;3.07;98.58;99763.78;6281241;20;2849232;-42
2021/10/16 02:08:16;;;;;;;;;66.67;48.33;;;;;3.15;98.04;99770.66;6279400;20;2881728;-41
2021/10/16 02:10:45;;;;;;;;;64.33;50.33;;;;;3.28;97.49;99775.56;6310572;20;2879541;-43
2021/10/16 02:13:14;;;;;;;;;63.00;52.50;;;;;2.99;99.01;99770.25;6309137;20;2869066;-42
2021/10/16 02:15:44;;;;;;;;;54.00;46.00;;;;;3.04;99.12;99771.00;6282365;20;2865865;-42
2021/10/16 02:18:13;;;;;;;;;56.33;43.67;;;;;3.09;98.48;99774.38;6279829;20;2878464;-42
2021/10/16 02:20:42;;;;;;;;;57.00;43.00;;;;;3.16;98.68;99777.69;6308725;20;2857695;-42
2021/10/16 02:23:11;;;;;;;;;62.00;45.67;;;;;2.80;99.82;99783.19;6276204;20;2871165;-43
2021/10/16 02:25:40;;;;;;;;;58.00;43.00;;;;;3.01;99.70;99781.69;6311173;20;2860644;-43
2021/10/16 02:28:09;;;;;;;;;57.00;45.50;;;;;2.81;100.00;99788.41;6279834;20;2849441;-42
2021/10/16 02:30:38;;;;;;;;;55.00;44.00;;;;;2.51;100.00;99797.25;6280400;20;2857535;-42
2021/10/16 02:33:07;;;;;;;;;69.33;53.33;;;;;2.36;100.00;99791.41;6280632;20;2868999;-42
2021/10/16 02:35:35;;;;;;;;;60.50;48.00;;;;;2.44;100.00;99791.22;6308521;20;2500263;-42
2021/10/16 02:38:04;;;;;;;;;61.00;50.00;;;;;2.39;100.00;99793.13;6278362;20;2854429;-43
2021/10/16 02:40:34;;;;;;;;;57.67;47.33;;;;;2.28;100.00;99785.47;6280769;20;2877431;-42
2021/10/16 02:43:03;;;;;;;;;59.00;46.50;;;;;2.18;100.00;99783.94;6316619;20;2868114;-42
2021/10/16 02:45:33;;;;;;;;;62.50;44.00;;;;;2.25;100.00;99787.31;6285844;20;2865900;-42
2021/10/16 02:48:01;;;;;;;;;61.50;50.00;;;;;2.24;100.00;99794.41;6282664;20;2497312;-44
2021/10/16 02:50:29;;;;;;;;;66.50;48.50;;;;;2.17;100.00;99788.38;6286873;20;2871075;-43
2021/10/16 02:52:58;;;;;;;;;67.00;52.50;;;;;2.18;100.00;99792.75;6286232;20;2865964;-43
2021/10/16 02:55:27;;;;;;;;;68.00;52.00;;;;;2.22;100.00;99793.56;6284304;20;2871076;-42
2021/10/16 02:57:57;;;;;;;;;68.00;49.67;;;;;2.24;100.00;99793.50;6285036;20;2878474;-42
2021/10/16 03:00:26;;;;;;;;;63.50;51.00;;;;;2.39;100.00;99793.97;6313521;20;2487850;-42
2021/10/16 03:02:57;;;;;;;;;62.00;46.00;;;;;2.30;100.00;99794.25;6286906;20;2873548;-42
2021/10/16 03:05:26;;;;;;;;;68.00;51.50;;;;;2.33;100.00;99788.84;6285711;20;2874562;-42
2021/10/16 03:07:56;;;;;;;;;61.67;45.33;;;;;2.98;100.00;99795.06;6284701;20;3635723;-42
2021/10/16 03:10:25;;;;;;;;;65.50;47.00;;;;;2.89;100.00;99787.34;6316452;20;2854432;-42
2021/10/16 03:12:54;;;;;;;;;65.33;49.00;;;;;3.22;100.00;99786.34;6285391;20;2874226;-42
2021/10/16 03:15:23;;;;;;;;;61.00;48.50;;;;;2.93;100.00;99796.97;6316778;20;2857663;-43
2021/10/16 03:17:51;;;;;;;;;54.50;46.00;;;;;2.64;100.00;99793.34;6279197;20;2499305;-42
2021/10/16 03:20:20;;;;;;;;;63.00;45.00;;;;;2.63;100.00;99792.47;6283917;20;2829441;-42
2021/10/16 03:22:49;;;;;;;;;63.33;47.67;;;;;2.43;100.00;99794.78;6282304;20;3631464;-43
2021/10/16 03:25:18;;;;;;;;;65.33;50.67;;;;;2.20;100.00;99790.94;6316545;20;2870055;-42
2021/10/16 03:27:48;;;;;;;;;71.33;53.33;;;;;2.26;100.00;99786.41;6314619;20;2877536;-41
2021/10/16 03:30:17;;;;;;;;;77.67;58.00;;;;;2.00;100.00;99785.28;6315514;20;3653324;-43
2021/10/16 03:32:47;;;;;;;;;69.50;54.00;;;;;1.93;100.00;99789.88;6316709;20;2872118;-42
2021/10/16 03:35:16;;;;;;;;;70.00;53.67;;;;;1.94;100.00;99780.16;6282993;20;2873227;-43
2021/10/16 03:37:46;;;;;;;;;75.67;55.67;;;;;2.10;100.00;99781.50;6315448;20;2886881;-42
2021/10/16 03:40:16;;;;;;;;;70.67;53.00;;;;;2.07;100.00;99773.63;6316463;20;3634918;-42
2021/10/16 03:42:44;;;;;;;;;61.50;48.50;;;;;2.34;100.00;99772.06;6314946;20;2859658;-46
2021/10/16 03:45:13;;;;;;;;;73.00;56.50;;;;;2.46;100.00;99772.66;6285509;20;2862782;-42
2021/10/16 03:47:43;;;;;;;;;67.67;52.00;;;;;2.42;100.00;99779.78;6280766;20;3632957;-42
2021/10/16 03:50:12;;;;;;;;;74.00;58.00;;;;;2.16;100.00;99788.44;6316284;20;2864855;-41
2021/10/16 03:52:40;;;;;;;;;5.67;0.00;;;;;2.15;100.00;99784.91;6283048;20;2733777;-42
2021/10/16 03:55:10;;;;;;;;;64.50;52.00;;;;;2.16;100.00;99780.50;6315360;20;2863796;-42
2021/10/16 03:57:39;;;;;;;;;72.67;53.67;;;;;2.39;100.00;99787.81;6283438;20;2894124;-42
2021/10/16 04:00:20;;;;;;;;;78.33;57.33;;;;;2.68;100.00;99780.88;6314939;20;3642929;-43
2021/10/16 04:02:52;;;;;;;;;74.33;53.33;;;;;2.47;100.00;99785.84;6315779;20;3640829;-42
2021/10/16 04:05:22;;;;;;;;;64.00;49.33;;;;;2.34;100.00;99785.31;6315203;20;2872373;-42
2021/10/16 04:07:51;;;;;;;;;63.67;48.33;;;;;2.35;100.00;99781.75;6312484;20;2867955;-43
2021/10/16 04:10:21;;;;;;;;;62.33;49.00;;;;;2.42;100.00;99777.13;6314650;20;2865986;-42
2021/10/16 04:12:51;;;;;;;;;67.67;53.33;;;;;2.27;100.00;99781.09;6316035;20;2871299;-43
2021/10/16 04:15:20;;;;;;;;;74.00;54.00;;;;;2.29;100.00;99776.63;6311136;20;3648119;-42
2021/10/16 04:17:49;;;;;;;;;63.00;49.50;;;;;2.16;100.00;99777.84;6311785;20;2851367;-42
2021/10/16 04:20:21;;;;;;;;;67.67;49.67;;;;;2.23;100.00;99781.19;6284107;20;2879646;-43
2021/10/16 04:22:50;;;;;;;;;62.33;48.33;;;;;2.27;100.00;99778.44;6308356;20;2868158;-42
2021/10/16 04:25:20;;;;;;;;;61.33;47.67;;;;;2.58;100.00;99772.28;6314210;20;2865937;-43
2021/10/16 04:27:50;;;;;;;;;66.67;54.00;;;;;2.42;100.00;99778.03;6314437;20;2865056;-42
2021/10/16 04:30:19;;;;;;;;;59.50;47.00;;;;;2.06;100.00;99781.63;6314395;20;2850279;-42
2021/10/16 04:32:48;;;;;;;;;64.67;45.67;;;;;2.43;100.00;99789.50;6283350;20;2878483;-42
2021/10/16 04:35:18;;;;;;;;;65.67;51.00;;;;;2.09;100.00;99779.78;6314014;20;2879526;-44
2021/10/16 04:37:48;;;;;;;;;73.67;56.67;;;;;2.02;100.00;99777.31;6313986;20;2881508;-42
2021/10/16 04:40:21;;;;;;;;;47.50;34.00;;;;;1.66;100.00;99785.25;6314322;20;2838931;-45
2021/10/16 04:42:51;;;;;;;;;71.50;55.50;;;;;1.59;100.00;99779.22;6281977;20;2865905;-42
2021/10/16 04:45:19;;;;;;;;;52.50;36.00;;;;;2.13;100.00;99786.75;6282407;20;2826661;-42
2021/10/16 04:47:49;;;;;;;;;71.00;58.50;;;;;2.40;100.00;99779.84;6291304;20;2867378;-43
2021/10/16 04:50:18;;;;;;;;;69.67;52.00;;;;;2.29;100.00;99781.91;6283898;20;2872194;-43
2021/10/16 04:52:48;;;;;;;;;70.00;53.00;;;;;2.61;100.00;99781.03;6312839;20;2878555;-42
2021/10/16 04:55:17;;;;;;;;;65.50;51.50;;;;;2.28;100.00;99781.94;6312624;20;2869122;-42
2021/10/16 04:57:46;;;;;;;;;67.50;51.00;;;;;2.83;100.00;99776.00;6280172;20;2872182;-44
2021/10/16 05:00:15;;;;;;;;;62.00;52.00;;;;;2.95;100.00;99781.84;6283472;20;2843109;-42
2021/10/16 05:02:44;;;;;;;;;71.50;56.50;;;;;3.05;100.00;99778.91;6281025;20;2869062;-42
2021/10/16 05:05:13;;;;;;;;;68.00;53.00;;;;;2.99;100.00;99783.50;6281335;20;2870157;-42
2021/10/16 05:07:42;;;;;;;;;72.50;57.00;;;;;3.35;100.00;99786.88;6280761;20;2869006;-42
2021/10/16 05:10:11;;;;;;;;;70.33;55.67;;;;;3.43;100.00;99787.50;6282063;20;3629385;-42
2021/10/16 05:12:40;;;;;;;;;66.00;52.50;;;;;3.42;100.00;99787.53;6311119;20;2865924;-42
2021/10/16 05:15:10;;;;;;;;;69.33;53.00;;;;;3.48;100.00;99788.22;6281322;20;2877486;-43
2021/10/16 05:17:39;;;;;;;;;64.50;48.50;;;;;3.74;100.00;99784.75;6312291;20;2857538;-42
2021/10/16 05:20:08;;;;;;;;;43.50;42.00;;;;;3.87;100.00;99789.63;6281684;20;2498281;-43
2021/10/16 05:22:37;;;;;;;;;57.00;43.67;;;;;4.00;100.00;99780.34;6279854;20;2868064;-43
2021/10/16 05:25:06;;;;;;;;;52.00;41.00;;;;;4.14;99.77;99783.44;6312352;20;2868027;-43
2021/10/16 05:27:37;;;;;;;;;61.67;47.33;;;;;4.18;100.00;99789.50;6281179;20;3619052;-42
2021/10/16 05:30:08;;;;;;;;;61.50;48.50;;;;;4.20;99.94;99792.13;6311054;20;2864840;-42
2021/10/16 05:32:38;;;;;;;;;60.00;46.50;;;;;4.33;99.26;99790.78;6279118;20;2861730;-42
2021/10/16 05:35:07;;;;;;;;;56.50;44.00;;;;;4.26;99.09;99797.22;6282612;20;2862738;-42
2021/10/16 05:37:37;;;;;;;;;69.33;54.00;;;;;4.05;100.00;99794.34;6278177;20;3648143;-42
2021/10/16 05:40:07;;;;;;;;;50.50;44.00;;;;;4.11;100.00;99795.97;6314549;20;2861821;-43
2021/10/16 05:42:36;;;;;;;;;52.00;43.00;;;;;4.10;100.00;99792.41;6280296;20;2862782;-43
2021/10/16 05:45:07;;;;;;;;;71.33;54.67;;;;;4.34;100.00;99805.78;6281709;20;2874234;-42
2021/10/16 05:47:37;;;;;;;;;58.33;44.67;;;;;4.33;100.00;99801.41;6310309;20;2877492;-44
2021/10/16 05:50:09;;;;;;;;;65.00;47.00;;;;;4.67;100.00;99808.22;6311975;20;2883657;-42
2021/10/16 05:52:39;;;;;;;;;47.33;41.67;;;;;4.81;98.98;99812.09;6311456;20;2863782;-43
2021/10/16 05:55:08;;;;;;;;;58.00;44.00;;;;;4.92;98.64;99814.38;6307360;20;2492964;-42
2021/10/16 05:57:36;;;;;;;;;61.00;47.00;;;;;5.06;98.30;99812.09;6276898;20;2500249;-43
2021/10/16 06:00:08;;;;;;;;;47.00;43.00;;;;;5.27;97.92;99809.56;6280470;20;2861791;-42
2021/10/16 06:02:39;;;;;;;;;73.00;51.00;;;;;5.32;96.90;99817.34;6312721;20;3638789;-43
2021/10/16 06:05:09;;;;;;;;;62.67;49.00;;;;;5.43;96.71;99820.50;6312068;20;2866941;-44
2021/10/16 06:07:38;;;;;;;;;72.00;56.00;;;;;5.52;95.91;99819.25;6308088;20;2879521;-43
2021/10/16 06:10:09;;;;;;;;;74.00;55.00;;;;;5.62;95.38;99829.50;6311009;20;3652381;-42
2021/10/16 06:12:38;;;;;;;;;65.67;49.00;;;;;5.79;95.23;99823.47;6312062;20;3616870;-42
2021/10/16 06:15:09;;;;;;;;;70.33;53.00;;;;;5.76;95.57;99839.59;6312789;20;3637752;-43
2021/10/16 06:17:38;;;;;;;;;66.67;50.33;;;;;5.89;95.40;99830.19;6314373;20;3631466;-46
2021/10/16 06:20:09;;;;;;;;;67.00;50.00;;;;;5.99;95.15;99835.19;6317531;20;3506489;-42
2021/10/16 06:22:38;;;;;;;;;70.67;53.00;;;;;6.01;95.38;99844.84;6315229;20;3631470;-44
2021/10/16 06:25:08;;;;;;;;;66.00;50.33;;;;;6.02;95.10;99845.72;6315830;20;3631703;-44
2021/10/16 06:27:38;;;;;;;;;59.33;46.00;;;;;6.13;94.57;99854.16;6317158;20;2870032;-42
2021/10/16 06:30:08;;;;;;;;;60.00;49.67;;;;;6.16;96.48;99851.34;6319863;20;3610657;-43
2021/10/16 06:32:37;;;;;;;;;64.67;50.33;;;;;6.22;95.59;99848.44;6318595;20;3627292;-42
2021/10/16 06:35:08;;;;;;;;;58.33;46.33;;;;;6.35;95.16;99849.69;6316395;20;2862742;-42
2021/10/16 06:37:38;;;;;;;;;62.33;46.67;;;;;6.48;94.68;99859.84;6314778;20;3642923;-42
2021/10/16 06:40:07;;;;;;;;;61.00;50.50;;;;;6.56;95.17;99857.72;6318623;20;2860838;-43
2021/10/16 06:42:37;;;;;;;;;63.00;47.33;;;;;6.74;93.45;99859.59;6285409;20;3629434;-42
2021/10/16 06:45:07;;;;;;;;;65.33;50.00;;;;;7.00;91.79;99861.13;6315770;20;3614813;-42
2021/10/16 06:47:37;;;;;;;;;66.33;51.67;;;;;7.09;91.76;99857.19;6317066;20;3631594;-42
2021/10/16 06:50:07;;;;;;;;;68.00;52.67;;;;;7.21;91.71;99867.31;6316738;20;3631491;-44
2021/10/16 06:52:35;;;;;;;;;143.50;107.00;;;;;7.37;92.21;99869.28;6278045;20;1953530;-44
2021/10/16 06:55:05;;;;;;;;;180.75;134.25;;;;;7.41;90.99;99866.41;6284218;20;4480489;-43
2021/10/16 06:57:33;;;;;;;;;175.00;131.00;;;;;7.55;90.56;99871.09;6278205;20;1953513;-43
2021/10/16 07:00:05;;;;;;;;;59.00;47.33;;;;;7.31;93.37;99882.91;6284794;20;2869060;-42
2021/10/16 07:02:35;;;;;;;;;41.67;34.67;;;;;7.56;93.38;99888.03;6315156;20;2861825;-43
2021/10/16 07:05:05;;;;;;;;;45.33;38.00;;;;;7.86;90.61;99883.03;6318999;20;3592988;-42
2021/10/16 07:07:34;;;;;;;;;46.33;36.00;;;;;7.98;89.44;99878.91;6283966;20;3624785;-42
2021/10/16 07:10:05;;;;;;;;;58.33;44.00;;;;;8.79;85.93;99882.94;6316685;20;3615005;-41
2021/10/16 07:12:35;;;;;;;;;58.33;46.00;;;;;9.32;82.48;99884.66;6316824;20;2869148;-44
2021/10/16 07:15:07;;;;;;;;;57.00;45.00;;;;;9.01;84.23;99891.63;6319700;20;2866070;-43
2021/10/16 07:17:36;;;;;;;;;52.00;38.33;;;;;9.02;83.41;99895.16;6322745;20;3645039;-44
2021/10/16 07:20:06;;;;;;;;;42.00;35.00;;;;;9.97;78.55;99894.56;6292600;20;3613807;-45
2021/10/16 07:22:36;;;;;;;;;46.00;37.50;;;;;9.98;79.09;99897.16;6287042;20;2851317;-44
2021/10/16 07:25:05;;;;;;;;;39.00;33.33;;;;;10.48;75.39;99906.00;6292185;20;3593040;-43
2021/10/16 07:27:35;;;;;;;;;34.33;32.67;;;;;10.79;74.82;99904.19;6285567;20;2847286;-43
2021/10/16 07:30:05;;;;;;;;;35.67;31.00;;;;;11.30;72.50;99915.50;6321464;20;3597148;-43
2021/10/16 07:32:37;;;;;;;;;34.33;29.67;;;;;10.38;76.42;99907.50;6288792;20;3608557;-43
2021/10/16 07:35:06;;;;;;;;;29.00;26.00;;;;;10.22;77.92;99911.00;6321061;20;3598183;-43
2021/10/16 07:37:34;;;;;;;;;34.00;29.00;;;;;10.31;77.95;99910.50;6286611;20;2737760;-43
2021/10/16 07:40:05;;;;;;;;;36.67;31.67;;;;;10.94;76.09;99919.41;6288657;20;3600275;-43
2021/10/16 07:42:33;;;;;;;;;33.33;27.67;;;;;10.79;76.37;99921.19;6292129;20;3586833;-45
2021/10/16 07:45:03;;;;;;;;;28.33;25.00;;;;;10.80;74.55;99924.75;6290843;20;3586785;-43
2021/10/16 07:47:31;;;;;;;;;26.00;21.00;;;;;10.95;74.52;99926.50;6284522;20;2500418;-43
2021/10/16 07:50:00;;;;;;;;;28.00;25.00;;;;;11.20;72.84;99929.47;6282741;20;2848248;-43
2021/10/16 07:52:29;;;;;;;;;29.00;29.00;;;;;10.98;73.40;99920.97;6286557;20;2843059;-43
2021/10/16 07:54:57;;;;;;;;;28.00;24.50;;;;;10.65;74.69;99919.31;6287584;20;2845179;-44
2021/10/16 07:57:26;;;;;;;;;23.50;23.50;;;;;10.31;77.14;99926.59;6286669;20;2845159;-43
2021/10/16 07:59:54;;;;;;;;;26.00;24.50;;;;;10.98;73.91;99939.78;6285747;20;2831594;-47
2021/10/16 08:02:24;;;;;;;;;27.50;23.00;;;;;11.49;73.75;99942.09;6288784;20;2852360;-43
2021/10/16 08:04:52;;;;;;;;;26.00;23.50;;;;;11.43;73.33;99937.97;6284447;20;2834613;-44
2021/10/16 08:07:22;;;;;;;;;31.33;24.33;;;;;11.25;73.58;99939.09;6288316;20;3595100;-45
2021/10/16 08:09:51;;;;;;;;;30.67;29.33;;;;;10.95;74.99;99942.63;6320393;20;3597238;-43
2021/10/16 08:12:21;;;;;;;;;58.00;47.33;;;;;11.23;74.44;99936.47;6287353;20;3625207;-44
2021/10/16 08:14:51;;;;;;;;;32.00;28.33;;;;;10.96;75.81;99947.06;6319133;20;3599202;-44
2021/10/16 08:17:21;;;;;;;;;50.33;37.67;;;;;10.52;77.44;99947.81;6284440;20;3632502;-42
2021/10/16 08:19:50;;;;;;;;;55.33;43.33;;;;;10.40;77.53;99953.88;6315763;20;3611804;-43
2021/10/16 08:22:20;;;;;;;;;67.00;51.33;;;;;10.59;76.69;99956.41;6287060;20;3630476;-42
2021/10/16 08:24:49;;;;;;;;;43.67;36.67;;;;;10.62;78.00;99957.09;6316563;20;3606506;-43
2021/10/16 08:27:19;;;;;;;;;76.25;55.00;;;;;10.45;78.39;99965.22;6286968;20;4392886;-43
2021/10/16 08:29:48;;;;;;;;;31.67;30.00;;;;;10.02;79.76;99951.50;6321465;20;3575223;-43
2021/10/16 08:32:18;;;;;;;;;30.67;27.67;;;;;10.09;79.55;99961.81;6284859;20;2856605;-42
2021/10/16 08:34:46;;;;;;;;;35.67;32.33;;;;;10.28;79.30;99964.34;6320127;20;3606487;-44
2021/10/16 08:37:16;;;;;;;;;29.67;28.67;;;;;9.83;79.99;99963.22;6287637;20;3610656;-44
2021/10/16 08:39:45;;;;;;;;;38.33;34.67;;;;;10.04;79.95;99963.00;6316838;20;3577339;-43
2021/10/16 08:42:14;;;;;;;;;33.00;31.50;;;;;10.13;79.31;99964.31;6284350;20;3481592;-43
2021/10/16 08:44:45;;;;;;;;;38.67;31.67;;;;;10.20;78.55;99963.88;6314684;20;3615956;-42
2021/10/16 08:47:16;;;;;;;;;38.67;34.67;;;;;10.20;79.64;99958.53;6320411;20;3591881;-43
2021/10/16 08:49:47;;;;;;;;;39.67;33.33;;;;;10.23;77.90;99957.50;6281526;20;3628389;-43
2021/10/16 08:52:17;;;;;;;;;45.00;36.00;;;;;10.75;76.66;99958.09;6319439;20;3600249;-42
2021/10/16 08:54:45;;;;;;;;;42.00;36.67;;;;;10.92;73.74;99958.94;6288016;20;3572148;-42
2021/10/16 08:57:14;;;;;;;;;38.33;31.33;;;;;11.86;70.68;99962.25;6286958;20;3621201;-43
2021/10/16 08:59:44;;;;;;;;;33.67;29.00;;;;;12.15;69.37;99962.22;6284337;20;3604394;-44
2021/10/16 09:02:13;;;;;;;;;32.33;32.00;;;;;12.22;69.44;99947.44;6320371;20;3597150;-42
2021/10/16 09:04:42;;;;;;;;;30.00;26.33;;;;;11.83;69.95;99965.09;6283847;20;2856563;-48
2021/10/16 09:07:24;;;;;;;;;31.33;24.33;;;;;11.47;68.87;99963.69;6320006;20;3598629;-43
2021/10/16 09:09:53;;;;;;;;;27.50;25.00;;;;;10.97;69.30;99956.84;6283472;20;2844082;-44
2021/10/16 09:12:22;;;;;;;;;29.67;27.00;;;;;10.74;70.81;99967.13;6285880;20;2849360;-42
2021/10/16 09:14:51;;;;;;;;;33.67;29.00;;;;;10.92;70.70;99972.38;6318095;20;3609714;-42
2021/10/16 09:17:20;;;;;;;;;34.67;29.67;;;;;10.84;71.96;99967.44;6287509;20;3604396;-43
2021/10/16 09:19:53;;;;;;;;;34.33;31.67;;;;;10.56;72.27;99962.81;6285276;20;2869111;-44
2021/10/16 09:22:23;;;;;;;;;36.00;29.00;;;;;10.56;71.77;99965.50;6313174;20;3608926;-42
2021/10/16 09:24:51;;;;;;;;;38.33;34.00;;;;;10.55;72.80;99969.13;6315432;20;3589791;-45
2021/10/16 09:27:23;;;;;;;;;33.33;29.33;;;;;10.51;73.21;99970.25;6283099;20;3613834;-43
2021/10/16 09:30:05;;;;;;;;;33.67;30.00;;;;;10.46;73.10;99975.03;6317443;20;3609685;-43
2021/10/16 09:32:37;;;;;;;;;41.75;32.75;;;;;10.24;73.89;99972.63;6287973;20;3635299;-42
2021/10/16 09:35:12;;;;;;;;;33.67;31.67;;;;;10.54;73.87;99976.31;6314648;20;3591025;-44
2021/10/16 09:37:53;;;;;;;;;39.00;36.67;;;;;10.42;74.28;99981.50;6282406;20;2842010;-44
2021/10/16 09:40:40;;;;;;;;;41.67;34.00;;;;;10.33;74.57;99978.38;6317558;20;3604454;-44
2021/10/16 09:43:20;;;;;;;;;42.00;37.67;;;;;10.60;74.29;99983.16;6280988;20;2867021;-43
2021/10/16 09:46:15;;;;;;;;;45.67;35.33;;;;;10.41;73.85;99980.66;6309012;20;2869226;-42
2021/10/16 09:48:47;;;;;;;;;103.25;82.50;;;;;11.32;72.57;99978.94;6315901;20;4434760;-43
2021/10/16 09:51:20;;;;;;;;;34.33;31.00;;;;;11.11;71.51;99986.47;6314073;20;3610661;-43
2021/10/16 09:54:07;;;;;;;;;45.67;36.00;;;;;12.00;71.72;99989.13;6288869;20;3630450;-42
2021/10/16 09:56:37;;;;;;;;;42.67;35.00;;;;;12.18;69.47;99994.34;6287402;20;3588799;-42
2021/10/16 09:59:06;;;;;;;;;38.33;33.67;;;;;12.08;69.06;99989.56;6283003;20;3588780;-43
2021/10/16 10:01:36;;;;;;;;;35.67;33.33;;;;;12.13;69.68;99991.06;6279733;20;2864948;-43
2021/10/16 10:04:05;;;;;;;;;33.33;28.33;;;;;12.15;68.12;99994.53;6314627;20;3611097;-43
2021/10/16 10:06:35;;;;;;;;;31.00;23.00;;;;;12.41;66.87;99996.44;6284354;20;3606467;-43
2021/10/16 10:09:07;;;;;;;;;36.00;30.00;;;;;12.27;67.30;100000.00;6278214;20;3616962;-43
2021/10/16 10:11:36;;;;;;;;;37.33;33.00;;;;;11.84;67.15;99991.03;6319310;20;3608627;-43
2021/10/16 10:14:06;;;;;;;;;33.00;30.67;;;;;12.37;67.72;99994.88;6281029;20;3602357;-44
2021/10/16 10:17:04;;;;;;;;;34.00;31.00;;;;;12.42;66.02;99989.22;6319313;20;2705572;-43
2021/10/16 10:19:44;;;;;;;;;35.00;30.00;;;;;12.72;65.84;99989.91;6285311;20;3606463;-43
2021/10/16 10:22:21;;;;;;;;;35.00;32.00;;;;;12.56;65.83;99985.63;6280495;20;2855501;-42
2021/10/16 10:24:54;;;;;;;;;31.00;28.67;;;;;12.68;65.45;99982.13;6284651;20;3597103;-42
2021/10/16 10:27:25;;;;;;;;;32.67;28.67;;;;;12.39;65.85;99981.34;6287757;20;3605483;-42
2021/10/16 10:29:56;;;;;;;;;31.33;27.67;;;;;12.27;67.07;99977.63;6284281;20;3604370;-43
2021/10/16 10:32:28;;;;;;;;;36.67;31.33;;;;;12.59;65.75;99977.34;6286020;20;3609620;-43
2021/10/16 10:35:10;;;;;;;;;35.33;30.00;;;;;12.16;66.01;99969.34;6286271;20;3598330;-43
2021/10/16 10:37:45;;;;;;;;;30.67;26.33;;;;;12.54;66.64;99969.56;6285310;20;3591232;-45
2021/10/16 10:40:23;;;;;;;;;33.33;31.67;;;;;12.91;65.23;99973.38;6283807;20;3608717;-45
2021/10/16 10:42:57;;;;;;;;;46.67;34.33;;;;;13.25;63.89;99970.25;6283631;20;3603358;-44
2021/10/16 10:45:34;;;;;;;;;30.00;29.00;;;;;13.15;64.08;99964.63;6277637;20;2744008;-43
2021/10/16 10:48:10;;;;;;;;;53.00;40.67;;;;;13.41;63.31;99968.28;6283995;20;3608563;-43
2021/10/16 10:50:49;;;;;;;;;48.00;39.00;;;;;13.38;63.70;99963.94;6280636;20;2855673;-43
2021/10/16 10:53:29;;;;;;;;;34.00;32.33;;;;;13.40;63.67;99963.81;6283488;20;3600248;-42
2021/10/16 10:56:15;;;;;;;;;37.00;30.00;;;;;13.15;62.86;99964.63;6287533;20;3617951;-44
2021/10/16 10:58:54;;;;;;;;;31.33;27.00;;;;;13.25;63.98;99960.34;6283997;20;3605475;-43
2021/10/16 11:01:49;;;;;;;;;28.67;26.33;;;;;13.76;63.04;99955.00;6286391;20;3580570;-43
2021/10/16 11:04:44;;;;;;;;;29.00;26.67;;;;;13.58;62.34;99951.75;6287877;20;2844030;-44
2021/10/16 11:07:46;;;;;;;;;25.33;25.33;;;;;13.69;62.71;99948.34;6321825;20;3590205;-43
2021/10/16 11:10:16;;;;;;;;;22.00;20.00;;;;;13.45;61.50;99950.03;6282621;20;2844127;-43
2021/10/16 11:12:45;;;;;;;;;29.00;23.00;;;;;13.63;61.55;99946.06;6280749;20;2845039;-43
2021/10/16 11:15:14;;;;;;;;;27.00;23.67;;;;;14.16;60.30;99954.84;6316852;20;3585667;-44
2021/10/16 11:17:46;;;;;;;;;25.33;23.67;;;;;13.99;61.01;99947.97;6288975;20;3589889;-45